Weather forecast for Bezmiechowa

Poland, 496 m
N49.521, E22.410


Sounding

Red line — air temperature ˚C.
Blue line — thermal bubble temperature ˚C.
Green line — dew point temperature ˚C.
Wind speed is in meters per second.

Table forecast

GFS 0.25˚ model

temp. wind gust humid. clouds prec. press. hpbl
Tue18 00:00 13 199.0 ssw 2 6 78 0 0.0 1024 101
03:00 12 201.0 ssw 2 5 81 0 0.0 1024 98
06:00 12 197.0 ssw 2 2 84 0 0.0 1023 35
09:00 15 199.0 ssw 1 2 75 0 0.0 1024 82
12:00 22 225.0 sw 2 2 52 52 0.0 1023 794
15:00 24 221.0 sw 2 2 46 61 0.0 1022 1317
18:00 22 227.0 sw 2 4 62 100 0.0 1021 441
21:00 15 195.0 ssw 2 2 82 80 0.0 1022 24
 
Wed19 00:00 13 190.0 s 2 3 83 48 0.0 1022 43
03:00 12 189.0 s 2 3 80 38 0.0 1023 65
06:00 12 196.0 ssw 3 7 80 7 0.0 1023 138
09:00 16 209.0 ssw 3 9 69 3 0.0 1023 298
12:00 22 232.0 sw 4 7 45 3 0.0 1023 939
15:00 24 230.0 sw 4 6 43 7 0.0 1022 1355
18:00 22 216.0 sw 2 5 59 21 0.0 1021 519
21:00 15 190.0 s 2 3 77 10 0.0 1023 61
 
Thu20 00:00 14 189.0 s 2 3 74 0 0.0 1023 42
03:00 14 189.0 s 2 3 76 0 0.0 1023 33
06:00 13 193.0 ssw 2 2 79 0 0.0 1022 23
09:00 16 198.0 ssw 1 1 71 0 0.0 1023 61
12:00 24 253.0 wsw 0 1 48 0 0.0 1022 765
15:00 26 315.0 nw 0 1 40 0 0.0 1021 2029
18:00 21 68.0 ene 1 2 58 67 0.0 1020 25
21:00 16 146.0 se 2 2 77 56 0.0 1020 23
 
Fri21 00:00 15 172.0 s 2 3 77 0 0.0 1020 37
03:00 15 184.0 s 2 2 71 0 0.0 1020 27
06:00 14 186.0 s 2 3 69 0 0.0 1019 31
09:00 17 194.0 ssw 2 4 65 0 0.0 1019 143
12:00 23 220.0 sw 4 6 44 0 0.0 1018 1153
15:00 24 216.0 sw 5 7 43 0 0.0 1016 1554
18:00 22 194.0 ssw 3 7 56 0 0.0 1014 968
21:00 16 176.0 s 3 9 71 0 0.0 1015 203
 
Sat22 00:00 16 186.0 s 3 12 64 0 0.0 1014 296
03:00 16 197.0 ssw 3 14 63 17 0.0 1012 446
06:00 17 210.0 ssw 5 15 55 55 0.0 1012 566
09:00 14 310.0 nw 7 12 77 73 0.0 1015 1088
12:00 10 310.0 nw 4 9 93 100 1.1 1018 827
15:00 8 315.0 nw 5 11 95 100 5.6 1019 791
18:00 8 316.0 nw 3 9 95 100 5.4 1021 862
21:00 6 264.0 w 1 2 96 85 5.5 1023 29
 

0.013 s